createdAt,value
2023-04-21T00:02:17.632Z,97.49
2023-04-21T00:04:46.231Z,97.36
2023-04-21T00:07:14.946Z,97.43
2023-04-21T00:09:43.028Z,97.43
2023-04-21T00:12:12.419Z,97.34
2023-04-21T00:14:40.611Z,97.31
2023-04-21T00:17:09.001Z,97.35
2023-04-21T00:19:37.286Z,97.27
2023-04-21T00:22:08.524Z,97.10
2023-04-21T00:24:36.769Z,97.24
2023-04-21T00:27:05.445Z,97.34
2023-04-21T00:29:33.979Z,97.07
2023-04-21T00:32:04.006Z,97.15
2023-04-21T00:34:32.403Z,97.07
2023-04-21T00:37:00.690Z,97.06
2023-04-21T00:39:28.956Z,97.20
2023-04-21T00:41:57.582Z,97.02
2023-04-21T00:44:25.917Z,97.15
2023-04-21T00:46:54.312Z,96.82
2023-04-21T00:49:22.785Z,96.94
2023-04-21T00:51:51.276Z,96.73
2023-04-21T00:54:19.755Z,96.68
2023-04-21T00:56:48.274Z,96.98
2023-04-21T00:59:16.668Z,96.78
2023-04-21T01:01:45.030Z,97.13
2023-04-21T01:04:13.785Z,96.95
2023-04-21T01:06:42.082Z,96.97
2023-04-21T01:09:12.409Z,97.31
2023-04-21T01:11:40.827Z,97.51
2023-04-21T01:14:09.093Z,97.39
2023-04-21T01:16:40.010Z,97.18
2023-04-21T01:19:08.402Z,97.25
2023-04-21T01:21:41.801Z,97.40
2023-04-21T01:24:10.285Z,96.97
2023-04-21T01:26:38.479Z,97.04
2023-04-21T01:29:06.982Z,97.24
2023-04-21T01:31:35.276Z,97.46
2023-04-21T01:34:04.995Z,97.37
2023-04-21T01:36:33.458Z,97.36
2023-04-21T01:39:01.816Z,97.39
2023-04-21T01:41:32.660Z,97.30
2023-04-21T01:44:01.347Z,97.20
2023-04-21T01:46:29.827Z,97.54
2023-04-21T01:48:58.314Z,97.16
2023-04-21T01:51:27.934Z,97.26
2023-04-21T01:53:56.055Z,97.38
2023-04-21T01:56:25.327Z,97.29
2023-04-21T01:58:53.803Z,97.39
2023-04-21T02:01:22.008Z,97.44
2023-04-21T02:03:50.961Z,97.56
2023-04-21T02:06:19.397Z,97.46
2023-04-21T02:08:47.531Z,97.31
2023-04-21T02:11:16.040Z,97.23
2023-04-21T02:13:44.508Z,97.31
2023-04-21T02:16:15.570Z,97.50
2023-04-21T02:18:48.574Z,97.56
2023-04-21T02:21:16.912Z,97.60
2023-04-21T02:23:45.087Z,97.42
2023-04-21T02:26:13.257Z,97.44
2023-04-21T02:28:41.707Z,97.57
2023-04-21T02:31:10.049Z,97.57
2023-04-21T02:33:38.420Z,97.70
2023-04-21T02:36:07.049Z,97.52
2023-04-21T02:38:35.798Z,97.41
2023-04-21T02:41:03.980Z,97.47
2023-04-21T02:43:32.841Z,97.26
2023-04-21T02:46:06.394Z,97.40
2023-04-21T02:48:36.021Z,97.21
2023-04-21T02:51:04.863Z,97.23
2023-04-21T02:53:34.799Z,97.10
2023-04-21T02:56:05.123Z,97.33
2023-04-21T02:58:34.426Z,97.20
2023-04-21T03:01:03.861Z,97.20
2023-04-21T03:03:32.994Z,97.51
2023-04-21T03:06:02.810Z,97.55
2023-04-21T03:08:32.475Z,97.41
2023-04-21T03:11:01.671Z,97.64
2023-04-21T03:13:30.029Z,97.64
2023-04-21T03:15:58.349Z,97.86
2023-04-21T03:18:26.811Z,97.78
2023-04-21T03:21:00.106Z,97.88
2023-04-21T03:23:28.595Z,98.17
2023-04-21T03:25:56.991Z,98.21
2023-04-21T03:28:25.175Z,97.91
2023-04-21T03:30:53.541Z,98.09
2023-04-21T03:33:21.828Z,98.19
2023-04-21T03:35:50.104Z,97.93
2023-04-21T03:38:18.284Z,98.24
2023-04-21T03:40:47.385Z,98.15
2023-04-21T03:43:15.920Z,97.80
2023-04-21T03:45:44.834Z,97.98
2023-04-21T03:48:13.352Z,97.84
2023-04-21T03:50:41.731Z,97.50
2023-04-21T03:53:09.916Z,97.68
2023-04-21T03:55:38.294Z,97.61
2023-04-21T03:58:07.598Z,97.54
2023-04-21T04:00:35.881Z,97.51
2023-04-21T04:03:04.402Z,97.24
2023-04-21T04:05:33.296Z,97.48
2023-04-21T04:08:01.951Z,97.43
2023-04-21T04:10:30.234Z,97.25
2023-04-21T04:12:58.510Z,97.39
2023-04-21T04:15:27.343Z,97.03
2023-04-21T04:17:55.862Z,96.99
2023-04-21T04:20:24.056Z,96.72
2023-04-21T04:22:52.352Z,96.70
2023-04-21T04:25:21.595Z,96.74
2023-04-21T04:27:50.390Z,96.84
2023-04-21T04:30:18.626Z,96.81
2023-04-21T04:32:47.260Z,96.80
2023-04-21T04:35:16.520Z,96.77
2023-04-21T04:37:45.716Z,96.43
2023-04-21T04:40:14.406Z,96.10
2023-04-21T04:42:43.752Z,96.38
2023-04-21T04:45:11.995Z,95.75
2023-04-21T04:47:40.869Z,95.13
2023-04-21T04:50:09.463Z,94.84
2023-04-21T04:52:39.097Z,94.19
2023-04-21T04:55:07.784Z,94.24
2023-04-21T04:57:36.467Z,94.20
2023-04-21T05:00:11.445Z,93.80
2023-04-21T05:02:41.503Z,93.57
2023-04-21T05:05:10.000Z,93.40
2023-04-21T05:07:39.007Z,93.36
2023-04-21T05:10:07.925Z,93.05
2023-04-21T05:12:36.897Z,92.89
2023-04-21T05:15:06.622Z,92.94
2023-04-21T05:17:35.586Z,92.88
2023-04-21T05:20:08.258Z,92.60
2023-04-21T05:22:41.404Z,92.25
2023-04-21T05:25:11.018Z,92.35
2023-04-21T05:27:39.691Z,92.69
2023-04-21T05:30:08.727Z,92.74
2023-04-21T05:32:37.498Z,93.04
2023-04-21T05:35:06.679Z,92.66
2023-04-21T05:37:35.795Z,92.46
2023-04-21T05:40:04.475Z,91.87
2023-04-21T05:42:33.064Z,91.47
2023-04-21T05:45:01.316Z,91.77
2023-04-21T05:47:29.889Z,92.20
2023-04-21T05:49:58.111Z,91.86
2023-04-21T05:52:26.458Z,91.67
2023-04-21T05:54:54.771Z,91.34
2023-04-21T05:57:25.999Z,91.69
2023-04-21T05:59:54.152Z,91.90
2023-04-21T06:02:23.381Z,91.39
2023-04-21T06:04:52.565Z,91.38
2023-04-21T06:07:21.325Z,91.30
2023-04-21T06:09:51.463Z,91.05
2023-04-21T06:12:19.885Z,91.29
2023-04-21T06:14:48.403Z,90.86
2023-04-21T06:17:18.226Z,90.85
2023-04-21T06:19:53.099Z,90.89
2023-04-21T06:22:21.284Z,91.04
2023-04-21T06:24:49.827Z,90.71
2023-04-21T06:27:18.068Z,90.91
2023-04-21T06:29:46.351Z,90.99
2023-04-21T06:32:14.560Z,91.22
2023-04-21T06:34:42.727Z,90.59
2023-04-21T06:37:10.961Z,90.33
2023-04-21T06:39:39.089Z,90.40
2023-04-21T06:42:07.356Z,90.43
2023-04-21T06:44:43.469Z,90.28
2023-04-21T06:47:11.700Z,89.97
2023-04-21T06:49:40.399Z,89.62
2023-04-21T06:52:08.789Z,89.39
2023-04-21T06:54:38.462Z,89.66
2023-04-21T06:57:06.878Z,89.69
2023-04-21T06:59:35.778Z,89.58
2023-04-21T07:02:04.420Z,89.51
2023-04-21T07:04:33.458Z,89.46
2023-04-21T07:07:03.235Z,89.62
2023-04-21T07:09:33.985Z,89.67
2023-04-21T07:12:03.215Z,88.33
2023-04-21T07:14:31.508Z,88.91
2023-04-21T07:17:00.009Z,88.68
2023-04-21T07:19:28.493Z,88.47
2023-04-21T07:21:56.676Z,87.81
2023-04-21T07:24:24.934Z,87.65
2023-04-21T07:26:53.415Z,87.70
2023-04-21T07:29:21.783Z,87.33
2023-04-21T07:31:50.152Z,86.94
2023-04-21T07:34:18.574Z,86.98
2023-04-21T07:36:48.157Z,86.74
2023-04-21T07:39:17.079Z,86.46
2023-04-21T07:41:48.123Z,86.51
2023-04-21T07:44:16.466Z,86.62
2023-04-21T07:46:51.395Z,86.53
2023-04-21T07:49:19.831Z,86.28
2023-04-21T07:51:48.410Z,85.42
2023-04-21T07:54:16.904Z,85.44
2023-04-21T07:56:45.325Z,85.82
2023-04-21T07:59:13.461Z,85.60
2023-04-21T08:01:41.737Z,85.25
2023-04-21T08:04:13.024Z,84.10
2023-04-21T08:06:47.474Z,84.31
2023-04-21T08:09:15.889Z,84.02
2023-04-21T08:11:44.258Z,83.54
2023-04-21T08:14:12.568Z,83.07
2023-04-21T08:16:44.516Z,82.29
2023-04-21T08:19:13.068Z,81.50
2023-04-21T08:21:41.205Z,81.24
2023-04-21T08:24:40.594Z,80.88
2023-04-21T08:27:09.001Z,80.11
2023-04-21T08:29:44.937Z,80.31
2023-04-21T08:32:13.399Z,80.23
2023-04-21T08:34:42.947Z,80.44
2023-04-21T08:37:11.356Z,81.17
2023-04-21T08:39:39.670Z,81.32
2023-04-21T08:42:08.571Z,81.08
2023-04-21T08:44:37.563Z,81.50
2023-04-21T08:47:06.026Z,81.85
2023-04-21T08:49:34.340Z,81.69
2023-04-21T08:52:02.726Z,81.96
2023-04-21T08:54:31.302Z,81.92
2023-04-21T08:57:15.457Z,82.33
2023-04-21T08:59:45.107Z,82.49
2023-04-21T09:02:15.417Z,82.78
2023-04-21T09:04:55.933Z,82.88
2023-04-21T09:07:39.358Z,82.74
2023-04-21T09:10:09.827Z,82.48
2023-04-21T09:12:59.713Z,82.27
2023-04-21T09:15:28.066Z,81.94
2023-04-21T09:17:57.620Z,82.15
2023-04-21T09:20:26.324Z,81.30
2023-04-21T09:22:55.402Z,81.03
2023-04-21T09:25:23.732Z,81.21
2023-04-21T09:27:51.934Z,81.21
2023-04-21T09:30:20.283Z,81.10
2023-04-21T09:32:52.960Z,81.04
2023-04-21T09:35:43.611Z,80.44
2023-04-21T09:38:15.665Z,78.42
2023-04-21T09:40:43.845Z,79.04
2023-04-21T09:43:12.625Z,79.42
2023-04-21T09:45:41.346Z,79.23
2023-04-21T09:48:10.086Z,79.38
2023-04-21T09:51:22.081Z,79.61
2023-04-21T09:53:26.844Z,79.71
2023-04-21T09:55:56.907Z,79.86
2023-04-21T09:58:25.227Z,79.93
2023-04-21T10:00:53.494Z,79.68
2023-04-21T10:03:21.898Z,78.85
2023-04-21T10:05:50.807Z,79.03
2023-04-21T10:08:18.918Z,78.47
2023-04-21T10:10:47.802Z,76.88
2023-04-21T10:13:18.804Z,76.67
2023-04-21T10:15:48.123Z,75.93
2023-04-21T10:18:20.909Z,76.78
2023-04-21T10:21:03.038Z,77.27
2023-04-21T10:23:43.079Z,77.26
2023-04-21T10:26:11.964Z,76.55
2023-04-21T10:28:43.206Z,76.18
2023-04-21T10:31:21.176Z,76.77
2023-04-21T10:34:08.128Z,77.02
2023-04-21T10:37:00.064Z,76.65
2023-04-21T10:39:31.531Z,77.23
2023-04-21T10:42:21.207Z,77.30
2023-04-21T10:44:53.788Z,77.87
2023-04-21T10:47:42.894Z,77.92
2023-04-21T10:50:14.141Z,78.59
2023-04-21T10:53:12.276Z,78.59
2023-04-21T10:55:43.680Z,78.13
2023-04-21T10:58:11.983Z,78.51
2023-04-21T11:00:40.429Z,77.99
2023-04-21T11:03:08.904Z,77.90
2023-04-21T11:05:39.123Z,77.50
2023-04-21T11:08:14.963Z,77.61
2023-04-21T11:10:46.225Z,77.70
2023-04-21T11:13:14.353Z,78.02
2023-04-21T11:15:42.585Z,77.81
2023-04-21T11:18:11.018Z,77.97
2023-04-21T11:20:42.626Z,77.98
2023-04-21T11:23:10.839Z,78.41
2023-04-21T11:25:38.993Z,78.14
2023-04-21T11:28:07.347Z,78.48
2023-04-21T11:30:35.983Z,78.75
2023-04-21T11:33:05.019Z,79.13
2023-04-21T11:35:33.331Z,79.28
2023-04-21T11:38:07.878Z,79.14
2023-04-21T11:40:47.101Z,79.69
2023-04-21T11:43:15.612Z,79.80
2023-04-21T11:45:43.870Z,79.54
2023-04-21T11:48:16.795Z,79.17
2023-04-21T11:50:50.303Z,78.72
2023-04-21T11:53:19.454Z,78.54
2023-04-21T11:55:47.738Z,78.97
2023-04-21T11:58:18.146Z,79.23
2023-04-21T12:00:46.879Z,79.38
2023-04-21T12:03:16.450Z,79.92
2023-04-21T12:05:44.893Z,80.24
2023-04-21T12:08:15.179Z,80.79
2023-04-21T12:10:47.284Z,81.08
2023-04-21T12:13:27.340Z,80.71
2023-04-21T12:15:55.638Z,80.84
2023-04-21T12:18:27.864Z,81.03
2023-04-21T12:20:56.231Z,81.32
2023-04-21T12:23:24.608Z,81.48
2023-04-21T12:25:55.555Z,81.87
2023-04-21T12:28:24.272Z,81.91
2023-04-21T12:30:52.828Z,82.07
2023-04-21T12:33:21.807Z,82.09
2023-04-21T12:35:50.029Z,82.29
2023-04-21T12:38:19.011Z,82.30
2023-04-21T12:40:47.262Z,82.47
2023-04-21T12:43:15.975Z,82.63
2023-04-21T12:45:44.399Z,82.78
2023-04-21T12:48:12.756Z,82.68
2023-04-21T12:50:41.265Z,82.48
2023-04-21T12:53:09.492Z,82.43
2023-04-21T12:55:40.202Z,82.34
2023-04-21T12:58:14.005Z,82.44
2023-04-21T13:00:42.899Z,82.55
2023-04-21T13:03:11.284Z,82.53
2023-04-21T13:05:39.716Z,82.59
2023-04-21T13:08:08.209Z,82.63
2023-04-21T13:10:36.820Z,82.50
2023-04-21T13:13:05.296Z,82.69
2023-04-21T13:15:33.984Z,82.70
2023-04-21T13:18:02.240Z,82.61
2023-04-21T13:20:31.277Z,82.70
2023-04-21T13:22:59.511Z,82.79
2023-04-21T13:25:27.902Z,82.93
2023-04-21T13:27:56.044Z,82.95
2023-04-21T13:30:24.228Z,82.74
2023-04-21T13:32:52.685Z,82.10
2023-04-21T13:35:20.884Z,81.77
2023-04-21T13:37:50.159Z,81.86
2023-04-21T13:40:18.365Z,81.68
2023-04-21T13:42:46.799Z,81.43
2023-04-21T13:45:15.005Z,81.28
2023-04-21T13:47:43.338Z,81.27
2023-04-21T13:50:11.593Z,81.22
2023-04-21T13:52:40.006Z,81.11
2023-04-21T13:55:08.912Z,81.28
2023-04-21T13:57:37.998Z,81.12
2023-04-21T14:00:07.124Z,80.98
2023-04-21T14:02:36.676Z,81.25
2023-04-21T14:05:05.681Z,81.45
2023-04-21T14:07:35.949Z,81.33
2023-04-21T14:10:04.825Z,80.87
2023-04-21T14:12:33.332Z,80.74
2023-04-21T14:15:01.985Z,80.72
2023-04-21T14:17:30.898Z,80.89
2023-04-21T14:19:59.246Z,81.15
2023-04-21T14:22:28.504Z,81.07
2023-04-21T14:24:56.727Z,81.07
2023-04-21T14:27:24.999Z,81.11
2023-04-21T14:29:53.249Z,80.93
2023-04-21T14:32:21.938Z,80.75
2023-04-21T14:34:53.542Z,80.84
2023-04-21T14:37:21.981Z,80.72
2023-04-21T14:39:51.028Z,80.69
2023-04-21T14:42:19.355Z,80.85
2023-04-21T14:44:47.577Z,81.00
2023-04-21T14:47:16.045Z,81.10
2023-04-21T14:49:44.605Z,80.95
2023-04-21T14:52:13.500Z,80.90
2023-04-21T14:54:41.814Z,80.69
2023-04-21T14:57:18.854Z,80.61
2023-04-21T14:59:52.079Z,80.78
2023-04-21T15:02:22.456Z,80.57
2023-04-21T15:05:06.192Z,80.74
2023-04-21T15:07:37.408Z,80.65
2023-04-21T15:10:07.063Z,80.53
2023-04-21T15:12:36.664Z,80.59
2023-04-21T15:15:06.798Z,80.70
2023-04-21T15:17:35.721Z,80.50
2023-04-21T15:20:04.630Z,80.65
2023-04-21T15:22:33.193Z,80.67
2023-04-21T15:25:01.685Z,80.69
2023-04-21T15:27:30.479Z,80.65
2023-04-21T15:29:59.075Z,80.64
2023-04-21T15:32:27.323Z,80.81
2023-04-21T15:34:55.841Z,80.76
2023-04-21T15:37:25.821Z,80.97
2023-04-21T15:39:54.438Z,80.80
2023-04-21T15:42:23.784Z,80.75
2023-04-21T15:44:53.656Z,80.39
2023-04-21T15:47:22.859Z,80.33
2023-04-21T15:49:51.131Z,80.38
2023-04-21T15:52:19.395Z,80.25
2023-04-21T15:54:47.983Z,79.75
2023-04-21T15:57:16.306Z,79.27
2023-04-21T15:59:44.501Z,79.31
2023-04-21T16:02:12.863Z,79.30
2023-04-21T16:04:41.659Z,79.30
2023-04-21T16:07:10.809Z,79.42
2023-04-21T16:09:39.560Z,79.62
2023-04-21T16:12:10.478Z,79.69
2023-04-21T16:14:54.425Z,79.79
2023-04-21T16:17:28.174Z,79.96
2023-04-21T16:19:56.559Z,79.99
2023-04-21T16:22:24.898Z,80.17
2023-04-21T16:24:53.608Z,80.03
2023-04-21T16:27:22.015Z,80.14
2023-04-21T16:29:50.487Z,80.52
2023-04-21T16:32:18.683Z,80.64
2023-04-21T16:34:47.147Z,80.86
2023-04-21T16:37:15.417Z,81.16
2023-04-21T16:39:43.671Z,81.22
2023-04-21T16:42:11.808Z,81.48
2023-04-21T16:44:40.347Z,81.42
2023-04-21T16:47:09.044Z,81.51
2023-04-21T16:49:37.392Z,81.37
2023-04-21T16:52:05.789Z,81.37
2023-04-21T16:54:34.068Z,81.32
2023-04-21T16:57:02.590Z,81.43
2023-04-21T16:59:31.559Z,81.66
2023-04-21T17:02:01.185Z,81.63
2023-04-21T17:04:29.874Z,81.66
2023-04-21T17:06:58.124Z,81.87
2023-04-21T17:09:26.212Z,81.89
2023-04-21T17:11:54.957Z,82.00
2023-04-21T17:14:23.593Z,81.82
2023-04-21T17:16:52.027Z,81.84
2023-04-21T17:19:20.462Z,81.84
2023-04-21T17:21:49.538Z,81.91
2023-04-21T17:24:17.781Z,81.83
2023-04-21T17:26:46.126Z,81.83
2023-04-21T17:29:14.376Z,81.92
2023-04-21T17:31:42.536Z,81.91
2023-04-21T17:34:10.769Z,81.88
2023-04-21T17:36:40.764Z,81.68
2023-04-21T17:39:09.497Z,81.74
2023-04-21T17:41:37.865Z,81.42
2023-04-21T17:44:06.951Z,81.32
2023-04-21T17:46:35.638Z,81.32
2023-04-21T17:49:04.024Z,81.02
2023-04-21T17:51:32.813Z,80.96
2023-04-21T17:54:00.991Z,80.74
2023-04-21T17:56:29.406Z,80.63
2023-04-21T17:58:57.720Z,80.30
2023-04-21T18:01:26.490Z,80.26
2023-04-21T18:03:58.511Z,80.37
2023-04-21T18:06:29.048Z,80.23
2023-04-21T18:08:57.761Z,80.29
2023-04-21T18:11:26.357Z,80.50
2023-04-21T18:13:54.803Z,80.45
2023-04-21T18:16:23.361Z,80.68
2023-04-21T18:18:51.610Z,80.57
2023-04-21T18:21:22.321Z,80.85
2023-04-21T18:23:50.911Z,80.92
2023-04-21T18:26:19.116Z,81.00
2023-04-21T18:28:47.441Z,80.99
2023-04-21T18:31:15.701Z,80.90
2023-04-21T18:33:44.136Z,81.11
2023-04-21T18:36:12.718Z,81.10
2023-04-21T18:38:41.006Z,81.11
2023-04-21T18:41:09.294Z,81.21
2023-04-21T18:43:37.771Z,81.17
2023-04-21T18:46:06.250Z,81.40
2023-04-21T18:48:34.546Z,81.14
2023-04-21T18:51:02.987Z,81.06
2023-04-21T18:53:31.290Z,81.13
2023-04-21T18:55:59.572Z,81.23
2023-04-21T18:58:27.766Z,81.29
2023-04-21T19:00:56.270Z,80.71
2023-04-21T19:03:25.311Z,80.99
2023-04-21T19:05:53.731Z,81.11
2023-04-21T19:08:38.146Z,81.16
2023-04-21T19:11:11.776Z,80.92
2023-04-21T19:13:40.073Z,80.72
2023-04-21T19:16:10.973Z,80.66
2023-04-21T19:18:39.263Z,80.74
2023-04-21T19:21:10.486Z,80.56
2023-04-21T19:23:39.248Z,80.75
2023-04-21T19:26:08.840Z,80.75
2023-04-21T19:28:37.477Z,80.70
2023-04-21T19:31:05.778Z,81.14
2023-04-21T19:33:35.041Z,80.99
2023-04-21T19:36:03.288Z,80.97
2023-04-21T19:38:31.709Z,81.16
2023-04-21T19:40:59.897Z,81.13
2023-04-21T19:43:28.010Z,81.22
2023-04-21T19:45:56.527Z,81.04
2023-04-21T19:48:24.992Z,80.99
2023-04-21T19:50:53.279Z,80.93
2023-04-21T19:53:21.664Z,81.00
2023-04-21T19:55:52.545Z,80.91
2023-04-21T19:58:32.527Z,80.71
2023-04-21T20:01:07.807Z,81.08
2023-04-21T20:03:36.938Z,80.88
2023-04-21T20:06:06.092Z,80.84
2023-04-21T20:08:35.806Z,80.63
2023-04-21T20:11:04.047Z,80.67
2023-04-21T20:13:32.364Z,80.71
2023-04-21T20:16:01.004Z,80.56
2023-04-21T20:18:29.859Z,80.55
2023-04-21T20:20:58.073Z,80.79
2023-04-21T20:23:26.461Z,80.56
2023-04-21T20:25:54.566Z,80.49
2023-04-21T20:28:22.890Z,80.68
2023-04-21T20:30:51.416Z,80.74
2023-04-21T20:33:19.744Z,80.64
2023-04-21T20:35:48.021Z,80.69
2023-04-21T20:38:16.466Z,80.59
2023-04-21T20:40:44.610Z,80.79
2023-04-21T20:43:12.762Z,81.05
2023-04-21T20:45:41.426Z,81.15
2023-04-21T20:48:09.634Z,81.28
2023-04-21T20:50:37.810Z,81.39
2023-04-21T20:53:07.591Z,81.41
2023-04-21T20:55:36.437Z,81.46
2023-04-21T20:58:04.918Z,81.62
2023-04-21T21:00:34.912Z,81.45
2023-04-21T21:03:04.812Z,81.70
2023-04-21T21:05:34.220Z,81.65
2023-04-21T21:08:02.637Z,81.67
2023-04-21T21:10:31.358Z,81.73
2023-04-21T21:12:59.912Z,81.75
2023-04-21T21:15:28.530Z,81.93
2023-04-21T21:17:57.333Z,82.06
2023-04-21T21:20:25.883Z,81.88
2023-04-21T21:22:54.263Z,81.85
2023-04-21T21:25:22.685Z,81.75
2023-04-21T21:27:50.823Z,81.65
2023-04-21T21:30:19.269Z,81.97
2023-04-21T21:32:47.862Z,82.08
2023-04-21T21:35:16.344Z,82.10
2023-04-21T21:37:44.482Z,81.95
2023-04-21T21:40:13.085Z,82.28
2023-04-21T21:42:42.019Z,82.36
2023-04-21T21:45:11.279Z,82.25
2023-04-21T21:47:43.989Z,82.48
2023-04-21T21:50:14.149Z,82.85
2023-04-21T21:52:42.395Z,82.94
2023-04-21T21:55:10.660Z,82.87
2023-04-21T21:57:39.096Z,83.11
2023-04-21T22:00:12.286Z,82.87
2023-04-21T22:02:42.557Z,83.02
2023-04-21T22:05:10.716Z,82.79
2023-04-21T22:07:43.110Z,83.08
2023-04-21T22:10:11.968Z,82.91
2023-04-21T22:12:40.241Z,82.96
2023-04-21T22:15:09.602Z,82.85
2023-04-21T22:17:38.127Z,82.98
2023-04-21T22:20:08.700Z,82.92
2023-04-21T22:22:37.485Z,83.02
2023-04-21T22:25:05.924Z,82.83
2023-04-21T22:27:34.425Z,82.68
2023-04-21T22:30:03.840Z,82.71
2023-04-21T22:32:32.832Z,82.74
2023-04-21T22:35:01.566Z,82.47
2023-04-21T22:37:30.256Z,82.69
2023-04-21T22:39:58.953Z,82.69
2023-04-21T22:42:27.181Z,82.93
2023-04-21T22:44:55.416Z,83.03
2023-04-21T22:47:23.913Z,83.11
2023-04-21T22:49:53.411Z,83.11
2023-04-21T22:52:22.046Z,83.25
2023-04-21T22:54:50.201Z,83.15
2023-04-21T22:57:18.463Z,83.40
2023-04-21T22:59:46.605Z,83.50
2023-04-21T23:02:15.001Z,83.33
2023-04-21T23:04:43.343Z,83.48
2023-04-21T23:07:11.484Z,83.76
2023-04-21T23:09:39.980Z,83.59
2023-04-21T23:12:08.907Z,83.89
2023-04-21T23:14:37.251Z,83.95
2023-04-21T23:17:05.388Z,84.09
2023-04-21T23:19:33.975Z,84.21
2023-04-21T23:22:02.242Z,84.03
2023-04-21T23:24:31.646Z,84.13
2023-04-21T23:27:00.157Z,84.17
2023-04-21T23:29:28.402Z,84.18
2023-04-21T23:31:56.879Z,84.21
2023-04-21T23:34:25.195Z,84.14
2023-04-21T23:36:53.466Z,84.16
2023-04-21T23:39:22.576Z,84.39
2023-04-21T23:41:50.860Z,84.37
2023-04-21T23:44:19.148Z,84.47
2023-04-21T23:46:47.271Z,84.35
2023-04-21T23:49:15.780Z,84.58
2023-04-21T23:51:43.909Z,84.46
2023-04-21T23:54:12.038Z,84.73
2023-04-21T23:56:40.092Z,84.77
2023-04-21T23:59:08.695Z,84.94
